Terminal Aerodrome Forecast
Issued by NWS

Home | Current Version | Previous Version | Graphics & Text | Print | Product List | Glossary On
Versions: 1 2 3 4 5 6 7 8 9 10 11 12 13 14 15 16 17 18 19 20 21 22 23 24 25 26
000
FTUS43 KUNR 210631 AAA
TAFGCC
TAF AMD
KGCC 210631Z 2107/2206 06011KT 4SM -SNRA OVC005
     FM210800 10009KT 4SM -SN OVC006
     FM211100 13011KT P6SM OVC004
     FM211500 15015KT P6SM BKN020
     FM211800 15017G27KT P6SM BKN040=

USA.gov is the U.S. government's official web portal to all federal, state and local government web resources and services.